Terminal Aerodrome Forecast
Issued by NWS

Home | Current Version | Previous Version | Text Only | Print | Product List | Glossary On
Versions: 1 2 3 4 5 6 7 8 9 10 11 12 13
000
FTAK31 PAJN 242300
TAFASI
TAF
PASI 242326Z 2500/2524 23006KT P6SM SCT040
     FM251200 31004KT P6SM SCT100
     FM252000 20006KT P6SM SKC=

USA.gov is the U.S. government's official web portal to all federal, state and local government web resources and services.